RSQ115 EINN-EINN

Flight info

Callsign RSQ115
Flight time N/A
Altitude 2500
Route VFR
Aircraft A189/M-SDGRY/SB2

Departure

Time 2026-05-07 20:15
Airport Shannon Airport (EINN)

Arrival

Time N/A
Airport Shannon Airport (EINN)
Time Latitude Longitude Altitude Speed Heading
2026-05-07 20:06 52.70438 -8.90760 18 ft 0 kts 291°
2026-05-07 20:10 52.70454 -8.90856 20 ft 10 kts 330°
2026-05-07 20:10 52.70533 -8.90829 19 ft 14 kts 22°
2026-05-07 20:10 52.70630 -8.90767 19 ft 16 kts 28°
2026-05-07 20:10 52.70744 -8.90706 20 ft 17 kts 27°
2026-05-07 20:11 52.70847 -8.90657 19 ft 14 kts 358°
2026-05-07 20:11 52.70884 -8.90671 19 ft 0 kts 334°
2026-05-07 20:11 52.70885 -8.90672 19 ft 1 kts 334°
2026-05-07 20:11 52.70908 -8.90696 19 ft 5 kts 330°
2026-05-07 20:12 52.70941 -8.90739 19 ft 11 kts 318°
2026-05-07 20:12 52.70965 -8.90863 21 ft 12 kts 228°
2026-05-07 20:12 52.70950 -8.90892 19 ft 0 kts 233°
2026-05-07 20:13 52.70912 -8.90959 65 ft 38 kts 231°
2026-05-07 20:13 52.70631 -8.91566 260 ft 85 kts 237°
2026-05-07 20:13 52.70191 -8.92454 477 ft 112 kts 235°
2026-05-07 20:14 52.69731 -8.93658 503 ft 135 kts 266°
2026-05-07 20:14 52.70087 -8.95010 520 ft 133 kts 309°
2026-05-07 20:14 52.70804 -8.95978 528 ft 136 kts 325°
2026-05-07 20:14 52.71570 -8.96876 538 ft 134 kts 322°
2026-05-07 20:15 52.72269 -8.97898 854 ft 131 kts 312°
2026-05-07 20:15 52.72928 -8.99011 976 ft 146 kts 310°
2026-05-07 20:15 52.73364 -8.99801 1004 ft 155 kts 310°
2026-05-07 20:15 52.73594 -9.00229 1025 ft 157 kts 310°
2026-05-07 20:16 52.74319 -9.01594 1038 ft 159 kts 310°
2026-05-07 20:16 52.75048 -9.02982 1049 ft 161 kts 309°
2026-05-07 20:16 52.75760 -9.04380 1295 ft 156 kts 308°
2026-05-07 20:16 52.76436 -9.05753 1413 ft 154 kts 307°
2026-05-07 20:17 52.77100 -9.07133 1464 ft 156 kts 306°
2026-05-07 20:17 52.77778 -9.08569 1486 ft 159 kts 306°
2026-05-07 20:17 52.78453 -9.10015 1529 ft 158 kts 307°
2026-05-07 20:17 52.79145 -9.11415 1638 ft 158 kts 309°
2026-05-07 20:18 52.79883 -9.12742 1682 ft 160 kts 312°
2026-05-07 20:18 52.80696 -9.14046 1699 ft 162 kts 315°
2026-05-07 20:18 52.81539 -9.15262 1708 ft 164 kts 319°
2026-05-07 20:18 52.82421 -9.16481 1713 ft 166 kts 319°
2026-05-07 20:19 52.83312 -9.17707 1713 ft 164 kts 319°
2026-05-07 20:19 52.84175 -9.18865 1710 ft 161 kts 320°
2026-05-07 20:19 52.85067 -9.20052 1710 ft 163 kts 321°
2026-05-07 20:19 52.85938 -9.21217 1718 ft 163 kts 320°
2026-05-07 20:20 52.86822 -9.22396 1717 ft 162 kts 320°
2026-05-07 20:20 52.87685 -9.23552 1717 ft 162 kts 320°
2026-05-07 20:20 52.88570 -9.24733 1715 ft 162 kts 320°
2026-05-07 20:20 52.89450 -9.25888 1714 ft 160 kts 323°
2026-05-07 20:21 52.90321 -9.27037 1715 ft 160 kts 321°
2026-05-07 20:21 52.91147 -9.28270 1719 ft 159 kts 318°
2026-05-07 20:21 52.91922 -9.29594 1715 ft 161 kts 314°
2026-05-07 20:21 52.92693 -9.30929 1716 ft 162 kts 317°
2026-05-07 20:22 52.93537 -9.32154 1709 ft 160 kts 323°
2026-05-07 20:22 52.94431 -9.33264 1714 ft 160 kts 325°
2026-05-07 20:22 52.95330 -9.34363 1716 ft 162 kts 325°
2026-05-07 20:22 52.96230 -9.35452 1710 ft 159 kts 326°
2026-05-07 20:23 52.97129 -9.36527 1717 ft 159 kts 326°
2026-05-07 20:23 52.98029 -9.37596 1709 ft 159 kts 325°
2026-05-07 20:23 52.98875 -9.38574 1538 ft 139 kts 329°
2026-05-07 20:23 52.99663 -9.39418 1337 ft 135 kts 326°
2026-05-07 20:24 53.00461 -9.40253 1257 ft 136 kts 328°
2026-05-07 20:24 53.01260 -9.41083 1229 ft 134 kts 328°
2026-05-07 20:24 53.02051 -9.41909 1213 ft 136 kts 327°
2026-05-07 20:24 53.02844 -9.42750 1208 ft 135 kts 328°
2026-05-07 20:25 53.03610 -9.43653 1233 ft 136 kts 317°
2026-05-07 20:25 53.04213 -9.44839 1166 ft 128 kts 309°
2026-05-07 20:25 53.04683 -9.46007 946 ft 114 kts 302°
2026-05-07 20:25 53.05056 -9.47066 743 ft 101 kts 302°
2026-05-07 20:26 53.05400 -9.48009 551 ft 90 kts 303°
2026-05-07 20:26 53.05702 -9.48824 421 ft 74 kts 300°
2026-05-07 20:26 53.05934 -9.49472 286 ft 57 kts 299°
2026-05-07 20:26 53.06111 -9.49966 259 ft 43 kts 297°
2026-05-07 20:27 53.06226 -9.50386 152 ft 43 kts 296°
2026-05-07 20:27 53.06349 -9.50773 89 ft 36 kts 301°
2026-05-07 20:27 53.06453 -9.51082 45 ft 22 kts 303°
2026-05-07 20:27 53.06483 -9.51198 40 ft 7 kts 281°
2026-05-07 20:28 53.06469 -9.51230 37 ft 0 kts 196°